Terminal Aerodrome Forecast
Issued by NWS La Crosse, WI

Home | Current Version | Previous Version | Text Only | Print | Product List | Glossary On
Versions: 1 2 3 4 5 6 7 8 9 10 11 12 13 14 15 16 17 18 19 20 21 22 23 24 25 26 27
000
FTUS43 KARX 172200 AAC
TAFLSE
TAF AMD
KLSE 172200Z 1722/1818 32007KT 4SM -RASN BR OVC009
     FM172300 31004KT 5SM BR OVC012
     FM180200 VRB03KT P6SM OVC017
     FM181200 20005KT P6SM SCT025
     FM181600 19006KT P6SM FEW150=

USA.gov is the U.S. government's official web portal to all federal, state and local government web resources and services.